createdAt,value
2017-10-05T00:01:51.796Z,32.23
2017-10-05T00:04:17.987Z,33.23
2017-10-05T00:06:44.190Z,38.73
2017-10-05T00:09:10.400Z,33.87
2017-10-05T00:11:36.598Z,46.10
2017-10-05T00:14:02.824Z,38.97
2017-10-05T00:16:29.026Z,33.17
2017-10-05T00:18:55.254Z,50.53
2017-10-05T00:21:21.430Z,38.60
2017-10-05T00:23:47.584Z,37.20
2017-10-05T00:26:13.750Z,35.03
2017-10-05T00:28:39.925Z,38.50
2017-10-05T00:31:06.102Z,30.03
2017-10-05T00:33:32.274Z,36.33
2017-10-05T00:35:58.448Z,39.27
2017-10-05T00:38:24.641Z,31.77
2017-10-05T00:40:50.839Z,33.87
2017-10-05T00:43:17.030Z,42.23
2017-10-05T00:45:43.213Z,27.83
2017-10-05T00:48:09.380Z,35.63
2017-10-05T00:50:35.559Z,32.73
2017-10-05T00:53:01.751Z,31.83
2017-10-05T00:55:27.933Z,27.63
2017-10-05T00:57:54.134Z,34.70
2017-10-05T01:00:20.320Z,27.97
2017-10-05T01:02:46.498Z,32.73
2017-10-05T01:05:12.724Z,37.50
2017-10-05T01:07:38.912Z,42.00
2017-10-05T01:10:05.102Z,43.40
2017-10-05T01:12:31.280Z,32.77
2017-10-05T01:14:57.469Z,42.70
2017-10-05T01:17:23.672Z,39.10
2017-10-05T01:19:49.884Z,42.57
2017-10-05T01:22:16.081Z,35.73
2017-10-05T01:24:42.276Z,44.10
2017-10-05T01:27:08.486Z,35.87
2017-10-05T01:29:34.766Z,31.47
2017-10-05T01:32:00.950Z,29.63
2017-10-05T01:34:27.118Z,33.17
2017-10-05T01:36:53.329Z,40.83
2017-10-05T01:39:19.524Z,37.10
2017-10-05T01:41:45.709Z,34.67
2017-10-05T01:44:11.912Z,33.73
2017-10-05T01:46:38.113Z,33.33
2017-10-05T01:49:04.309Z,42.20
2017-10-05T01:51:30.504Z,34.73
2017-10-05T01:53:56.736Z,43.57
2017-10-05T01:56:22.915Z,50.33
2017-10-05T01:58:49.103Z,34.90
2017-10-05T02:01:15.297Z,37.13
2017-10-05T02:03:41.490Z,42.90
2017-10-05T02:06:07.733Z,39.57
2017-10-05T02:08:33.929Z,44.43
2017-10-05T02:11:00.129Z,40.23
2017-10-05T02:13:26.329Z,50.00
2017-10-05T02:15:52.500Z,51.13
2017-10-05T02:18:18.698Z,48.50
2017-10-05T02:20:44.889Z,37.40
2017-10-05T02:23:11.097Z,37.00
2017-10-05T02:25:37.297Z,40.17
2017-10-05T02:28:03.496Z,35.10
2017-10-05T02:30:29.718Z,35.50
2017-10-05T02:32:55.905Z,40.80
2017-10-05T02:35:22.115Z,41.80
2017-10-05T02:37:48.328Z,51.30
2017-10-05T02:40:14.501Z,44.73
2017-10-05T02:42:40.726Z,60.27
2017-10-05T02:45:06.944Z,45.30
2017-10-05T02:47:33.128Z,45.67
2017-10-05T02:49:59.345Z,58.33
2017-10-05T02:52:25.556Z,190.20
2017-10-05T02:54:51.779Z,217.03
2017-10-05T02:57:17.962Z,134.37
2017-10-05T02:59:44.137Z,85.43
2017-10-05T03:02:10.329Z,46.70
2017-10-05T03:04:36.520Z,61.43
2017-10-05T03:07:02.777Z,47.20
2017-10-05T03:09:28.964Z,61.53
2017-10-05T03:11:55.153Z,88.63
2017-10-05T03:14:21.341Z,146.07
2017-10-05T03:16:47.534Z,69.00
2017-10-05T03:19:13.722Z,60.10
2017-10-05T03:21:39.910Z,52.63
2017-10-05T03:24:06.126Z,70.20
2017-10-05T03:26:32.294Z,56.53
2017-10-05T03:28:58.485Z,48.73
2017-10-05T03:31:24.713Z,41.50
2017-10-05T03:33:50.908Z,67.00
2017-10-05T03:36:17.114Z,43.83
2017-10-05T03:38:43.312Z,54.40
2017-10-05T03:41:09.503Z,54.40
2017-10-05T03:43:35.714Z,58.20
2017-10-05T03:46:01.929Z,39.40
2017-10-05T03:48:28.115Z,38.17
2017-10-05T03:50:54.322Z,45.67
2017-10-05T03:53:20.521Z,40.50
2017-10-05T03:55:46.766Z,49.07
2017-10-05T03:58:12.964Z,38.43
2017-10-05T04:00:39.152Z,39.80
2017-10-05T04:03:05.325Z,47.97
2017-10-05T04:05:31.503Z,60.87
2017-10-05T04:07:57.759Z,35.63
2017-10-05T04:10:23.934Z,36.53
2017-10-05T04:12:50.127Z,46.50
2017-10-05T04:15:16.366Z,47.70
2017-10-05T04:17:42.563Z,46.80
2017-10-05T04:20:08.836Z,34.33
2017-10-05T04:22:35.031Z,42.00
2017-10-05T04:25:01.235Z,36.03
2017-10-05T04:27:27.428Z,38.50
2017-10-05T04:29:53.621Z,33.20
2017-10-05T04:32:19.801Z,52.93
2017-10-05T04:34:45.988Z,40.63
2017-10-05T04:37:12.196Z,43.63
2017-10-05T04:39:38.381Z,44.63
2017-10-05T04:42:04.554Z,46.57
2017-10-05T04:44:30.807Z,45.23
2017-10-05T04:46:57.004Z,51.73
2017-10-05T04:49:23.195Z,51.90
2017-10-05T04:51:49.408Z,39.83
2017-10-05T04:54:15.605Z,35.50
2017-10-05T04:56:41.812Z,33.30
2017-10-05T04:59:08.073Z,31.63
2017-10-05T05:01:34.266Z,32.93
2017-10-05T05:04:00.466Z,39.50
2017-10-05T05:06:26.664Z,34.60
2017-10-05T05:08:52.887Z,26.80
2017-10-05T05:11:19.070Z,30.07
2017-10-05T05:13:45.262Z,34.20
2017-10-05T05:16:11.506Z,40.07
2017-10-05T05:18:37.698Z,36.83
2017-10-05T05:21:03.878Z,37.63
2017-10-05T05:23:30.049Z,35.30
2017-10-05T05:25:56.231Z,38.63
2017-10-05T05:28:22.441Z,24.00
2017-10-05T05:30:48.620Z,32.53
2017-10-05T05:33:14.781Z,39.63
2017-10-05T05:35:40.984Z,34.03
2017-10-05T05:38:07.147Z,31.43
2017-10-05T05:40:33.367Z,28.17
2017-10-05T05:42:59.549Z,35.83
2017-10-05T05:45:25.879Z,32.43
2017-10-05T05:47:52.116Z,42.37
2017-10-05T05:50:18.367Z,26.63
2017-10-05T05:52:44.562Z,21.17
2017-10-05T05:55:10.807Z,23.50
2017-10-05T05:57:36.987Z,25.37
2017-10-05T06:00:03.171Z,21.63
2017-10-05T06:02:29.381Z,21.13
2017-10-05T06:04:55.573Z,23.23
2017-10-05T06:07:21.743Z,20.23
2017-10-05T06:09:47.948Z,29.40
2017-10-05T06:12:14.132Z,16.33
2017-10-05T06:14:40.347Z,20.17
2017-10-05T06:17:06.547Z,25.90
2017-10-05T06:19:32.729Z,19.63
2017-10-05T06:21:58.930Z,20.17
2017-10-05T06:24:25.127Z,17.90
2017-10-05T06:26:51.340Z,24.90
2017-10-05T06:29:17.541Z,22.00
2017-10-05T06:31:43.763Z,25.43
2017-10-05T06:34:09.948Z,46.23
2017-10-05T06:36:36.128Z,19.00
2017-10-05T06:39:02.365Z,20.13
2017-10-05T06:41:28.570Z,25.37
2017-10-05T06:43:54.745Z,25.40
2017-10-05T06:46:20.933Z,27.30
2017-10-05T06:48:47.108Z,40.13
2017-10-05T06:51:13.336Z,43.53
2017-10-05T06:53:39.525Z,48.67
2017-10-05T06:56:05.725Z,47.40
2017-10-05T06:58:31.915Z,39.37
2017-10-05T07:00:58.126Z,38.87
2017-10-05T07:03:24.324Z,51.97
2017-10-05T07:05:50.502Z,62.13
2017-10-05T07:08:16.712Z,38.63
2017-10-05T07:10:42.898Z,27.83
2017-10-05T07:13:09.092Z,41.73
2017-10-05T07:15:35.321Z,36.23
2017-10-05T07:18:01.520Z,31.30
2017-10-05T07:20:27.726Z,29.90
2017-10-05T07:22:53.940Z,45.07
2017-10-05T07:25:20.154Z,33.80
2017-10-05T07:27:46.342Z,19.53
2017-10-05T07:30:12.533Z,15.10
2017-10-05T07:32:38.706Z,14.10
2017-10-05T07:35:04.882Z,10.00
2017-10-05T07:37:31.060Z,9.10
2017-10-05T07:39:57.273Z,11.60
2017-10-05T07:42:23.459Z,11.70
2017-10-05T07:44:49.644Z,36.23
2017-10-05T07:47:16.036Z,25.23
2017-10-05T07:49:42.227Z,23.30
2017-10-05T07:52:08.477Z,28.47
2017-10-05T07:54:34.663Z,20.80
2017-10-05T07:57:00.868Z,19.47
2017-10-05T07:59:27.064Z,16.40
2017-10-05T08:01:53.244Z,14.40
2017-10-05T08:04:19.425Z,29.17
2017-10-05T08:06:45.628Z,68.63
2017-10-05T08:09:11.816Z,50.33
2017-10-05T08:11:38.000Z,34.63
2017-10-05T08:14:04.193Z,35.77
2017-10-05T08:16:30.390Z,52.43
2017-10-05T08:21:28.989Z,54.77
2017-10-05T08:23:55.199Z,55.50
2017-10-05T08:26:21.403Z,53.13
2017-10-05T08:28:47.634Z,62.80
2017-10-05T08:31:13.809Z,41.00
2017-10-05T08:33:39.977Z,29.77
2017-10-05T08:36:06.141Z,58.00
2017-10-05T08:38:32.327Z,40.40
2017-10-05T08:40:58.519Z,51.83
2017-10-05T08:43:24.740Z,31.77
2017-10-05T08:45:50.916Z,38.80
2017-10-05T08:48:17.102Z,46.63
2017-10-05T08:50:43.349Z,41.47
2017-10-05T08:53:09.530Z,40.03
2017-10-05T08:55:35.700Z,24.83
2017-10-05T08:58:01.892Z,43.87
2017-10-05T09:00:28.055Z,19.70
2017-10-05T09:02:54.236Z,26.20
2017-10-05T09:05:20.427Z,12.33
2017-10-05T09:07:46.634Z,7.77
2017-10-05T09:10:12.837Z,8.50
2017-10-05T09:12:39.019Z,4.57
2017-10-05T09:15:05.198Z,9.57
2017-10-05T09:17:31.371Z,5.13
2017-10-05T09:19:57.614Z,4.77
2017-10-05T09:22:23.779Z,3.10
2017-10-05T09:24:49.994Z,3.77
2017-10-05T09:27:16.306Z,6.07
2017-10-05T09:29:42.470Z,5.93
2017-10-05T09:32:08.678Z,5.40
2017-10-05T09:34:34.844Z,4.93
2017-10-05T09:37:01.012Z,2.80
2017-10-05T09:39:27.220Z,2.60
2017-10-05T09:41:53.398Z,18.93
2017-10-05T09:44:19.626Z,19.57
2017-10-05T09:46:45.792Z,16.63
2017-10-05T09:49:11.990Z,7.80
2017-10-05T09:51:38.143Z,15.70
2017-10-05T09:54:04.317Z,3.23
2017-10-05T09:56:30.530Z,4.30
2017-10-05T09:58:56.726Z,3.67
2017-10-05T10:01:22.894Z,3.87
2017-10-05T10:03:49.062Z,2.73
2017-10-05T10:06:15.219Z,3.23
2017-10-05T10:08:41.394Z,3.10
2017-10-05T10:11:07.602Z,5.40
2017-10-05T10:13:33.813Z,3.10
2017-10-05T10:16:00.003Z,5.90
2017-10-05T10:18:26.194Z,7.00
2017-10-05T10:20:52.380Z,4.00
2017-10-05T10:23:18.560Z,4.83
2017-10-05T10:25:44.739Z,5.60
2017-10-05T10:28:10.925Z,2.83
2017-10-05T10:30:37.111Z,19.97
2017-10-05T10:33:03.298Z,8.63
2017-10-05T10:35:29.476Z,4.67
2017-10-05T10:37:55.658Z,4.07
2017-10-05T10:40:21.860Z,4.33
2017-10-05T10:42:48.043Z,4.00
2017-10-05T10:45:14.256Z,6.07
2017-10-05T10:47:40.481Z,6.60
2017-10-05T10:50:06.642Z,6.30
2017-10-05T10:52:33.001Z,11.87
2017-10-05T10:54:59.227Z,4.33
2017-10-05T10:57:25.556Z,3.57
2017-10-05T10:59:51.729Z,4.37
2017-10-05T11:02:17.926Z,3.20
2017-10-05T11:04:44.110Z,2.60
2017-10-05T11:07:10.295Z,2.53
2017-10-05T11:09:36.460Z,5.80
2017-10-05T11:12:02.609Z,3.20
2017-10-05T11:14:28.769Z,13.27
2017-10-05T11:16:54.960Z,4.93
2017-10-05T11:19:21.600Z,3.87
2017-10-05T11:21:47.769Z,3.00
2017-10-05T11:24:13.956Z,3.10
2017-10-05T11:26:40.271Z,3.77
2017-10-05T11:29:06.455Z,2.73
2017-10-05T11:31:32.632Z,2.07
2017-10-05T11:33:58.865Z,3.03
2017-10-05T11:36:25.047Z,7.43
2017-10-05T11:38:51.238Z,2.50
2017-10-05T11:41:17.439Z,5.67
2017-10-05T11:43:43.674Z,1.90
2017-10-05T11:46:09.866Z,4.50
2017-10-05T11:48:36.070Z,3.23
2017-10-05T11:51:02.267Z,2.60
2017-10-05T11:53:28.465Z,21.30
2017-10-05T11:55:54.686Z,4.93
2017-10-05T11:58:20.868Z,3.33
2017-10-05T12:00:47.061Z,2.33
2017-10-05T12:03:13.249Z,3.30
2017-10-05T12:05:39.419Z,9.77
2017-10-05T12:08:05.577Z,6.23
2017-10-05T12:10:31.797Z,6.50
2017-10-05T12:12:57.966Z,3.20
2017-10-05T12:15:24.149Z,2.43
2017-10-05T12:17:50.335Z,2.87
2017-10-05T12:20:17.144Z,3.73
2017-10-05T12:22:43.324Z,17.50
2017-10-05T12:25:09.479Z,5.20
2017-10-05T12:27:35.689Z,1.87
2017-10-05T12:30:01.849Z,2.53
2017-10-05T12:32:28.049Z,3.13
2017-10-05T12:34:54.234Z,3.17
2017-10-05T12:37:20.407Z,5.50
2017-10-05T12:39:46.636Z,2.40
2017-10-05T12:42:12.826Z,2.33
2017-10-05T12:44:39.009Z,2.20
2017-10-05T12:47:05.172Z,2.50
2017-10-05T12:49:31.371Z,6.50
2017-10-05T12:51:57.550Z,9.47
2017-10-05T12:54:23.723Z,4.95
2017-10-05T12:56:49.903Z,2.80
2017-10-05T12:59:16.075Z,2.77
2017-10-05T13:01:42.255Z,2.47
2017-10-05T13:04:08.459Z,3.73
2017-10-05T13:06:34.631Z,3.60
2017-10-05T13:09:00.823Z,2.92
2017-10-05T13:11:27.033Z,2.60
2017-10-05T13:13:53.206Z,2.15
2017-10-05T13:16:19.402Z,3.05
2017-10-05T13:18:45.598Z,2.75
2017-10-05T13:21:11.766Z,5.43
2017-10-05T13:23:37.958Z,2.80
2017-10-05T13:26:04.198Z,3.53
2017-10-05T13:28:30.490Z,4.13
2017-10-05T13:30:56.677Z,5.03
2017-10-05T13:33:22.855Z,5.73
2017-10-05T13:35:49.094Z,5.53
2017-10-05T13:38:15.275Z,4.50
2017-10-05T13:40:41.445Z,5.10
2017-10-05T13:43:07.634Z,9.40
2017-10-05T13:45:34.476Z,6.70
2017-10-05T13:48:00.688Z,3.63
2017-10-05T13:50:26.866Z,7.73
2017-10-05T13:52:53.050Z,9.33
2017-10-05T13:55:19.244Z,6.40
2017-10-05T13:57:45.433Z,7.53
2017-10-05T14:00:11.637Z,3.63
2017-10-05T14:02:37.878Z,4.47
2017-10-05T14:05:04.083Z,3.20
2017-10-05T14:07:30.302Z,5.27
2017-10-05T14:09:56.541Z,4.43
2017-10-05T14:12:22.750Z,4.87
2017-10-05T14:14:48.949Z,4.50
2017-10-05T14:17:15.132Z,12.27
2017-10-05T14:19:41.361Z,8.27
2017-10-05T14:22:07.539Z,9.53
2017-10-05T14:24:33.734Z,5.13
2017-10-05T14:26:59.926Z,4.93
2017-10-05T14:29:26.112Z,5.80
2017-10-05T14:31:52.278Z,11.90
2017-10-05T14:34:18.465Z,7.67
2017-10-05T14:36:44.665Z,8.60
2017-10-05T14:39:10.863Z,9.30
2017-10-05T14:41:37.043Z,4.63
2017-10-05T14:44:03.270Z,3.93
2017-10-05T14:46:29.447Z,5.17
2017-10-05T14:48:55.608Z,9.40
2017-10-05T14:51:21.800Z,6.77
2017-10-05T14:53:47.949Z,7.30
2017-10-05T14:56:14.138Z,5.87
2017-10-05T14:58:40.338Z,11.70
2017-10-05T15:01:06.525Z,4.33
2017-10-05T15:03:32.762Z,17.93
2017-10-05T15:05:58.921Z,9.80
2017-10-05T15:08:25.103Z,18.67
2017-10-05T15:10:51.304Z,11.20
2017-10-05T15:13:17.511Z,12.43
2017-10-05T15:15:43.712Z,10.10
2017-10-05T15:18:09.901Z,19.13
2017-10-05T15:20:36.129Z,19.40
2017-10-05T15:23:02.313Z,14.93
2017-10-05T15:25:28.477Z,18.13
2017-10-05T15:27:54.660Z,15.53
2017-10-05T15:30:20.855Z,40.47
2017-10-05T15:32:47.035Z,14.63
2017-10-05T15:35:13.211Z,20.50
2017-10-05T15:37:39.390Z,13.10
2017-10-05T15:40:05.576Z,38.83
2017-10-05T15:42:31.730Z,29.60
2017-10-05T15:44:57.938Z,15.30
2017-10-05T15:47:24.107Z,15.13
2017-10-05T15:49:50.300Z,24.50
2017-10-05T15:52:16.513Z,30.17
2017-10-05T15:54:42.725Z,18.53
2017-10-05T15:57:09.012Z,42.67
2017-10-05T15:59:35.162Z,22.83
2017-10-05T16:02:01.356Z,35.17
2017-10-05T16:04:27.554Z,14.80
2017-10-05T16:06:53.703Z,18.20
2017-10-05T16:09:19.906Z,22.77
2017-10-05T16:11:46.086Z,19.23
2017-10-05T16:14:12.270Z,14.00
2017-10-05T16:16:38.436Z,21.43
2017-10-05T16:19:04.646Z,11.70
2017-10-05T16:21:30.915Z,23.13
2017-10-05T16:23:57.069Z,18.10
2017-10-05T16:26:23.253Z,18.17
2017-10-05T16:28:49.419Z,16.13
2017-10-05T16:31:15.585Z,13.87
2017-10-05T16:33:41.741Z,25.03
2017-10-05T16:36:07.935Z,16.23
2017-10-05T16:38:34.104Z,23.17
2017-10-05T16:41:00.297Z,31.90
2017-10-05T16:43:26.460Z,13.07
2017-10-05T16:45:52.622Z,11.67
2017-10-05T16:48:18.772Z,23.90
2017-10-05T16:50:44.946Z,29.63
2017-10-05T16:53:11.141Z,17.70
2017-10-05T16:55:37.293Z,42.77
2017-10-05T16:58:03.490Z,40.87
2017-10-05T17:00:29.640Z,26.53
2017-10-05T17:02:55.809Z,30.63
2017-10-05T17:05:21.982Z,39.17
2017-10-05T17:07:48.178Z,23.83
2017-10-05T17:10:14.358Z,36.70
2017-10-05T17:12:40.585Z,20.23
2017-10-05T17:15:06.757Z,25.20
2017-10-05T17:17:32.960Z,25.17
2017-10-05T17:19:59.286Z,16.50
2017-10-05T17:22:25.459Z,18.37
2017-10-05T17:24:51.628Z,17.43
2017-10-05T17:27:17.845Z,16.23
2017-10-05T17:29:43.995Z,20.23
2017-10-05T17:32:10.147Z,25.93
2017-10-05T17:34:36.316Z,41.70
2017-10-05T17:37:02.467Z,19.07
2017-10-05T17:39:28.674Z,25.67
2017-10-05T17:41:54.846Z,33.73
2017-10-05T17:44:20.992Z,20.50
2017-10-05T17:46:47.186Z,27.77
2017-10-05T17:49:13.336Z,57.33
2017-10-05T17:51:39.473Z,35.53
2017-10-05T17:54:05.611Z,54.27
2017-10-05T17:56:31.758Z,24.43
2017-10-05T17:58:57.929Z,30.47
2017-10-05T18:01:24.092Z,30.47
2017-10-05T18:03:50.247Z,23.73
2017-10-05T18:06:16.422Z,26.23
2017-10-05T18:08:42.572Z,70.93
2017-10-05T18:11:08.778Z,39.53
2017-10-05T18:13:34.926Z,40.03
2017-10-05T18:16:01.076Z,27.63
2017-10-05T18:18:27.248Z,27.10
2017-10-05T18:20:53.407Z,43.63
2017-10-05T18:23:19.609Z,25.70
2017-10-05T18:25:45.783Z,33.60
2017-10-05T18:28:11.932Z,20.60
2017-10-05T18:30:38.084Z,24.90
2017-10-05T18:33:04.250Z,15.13
2017-10-05T18:35:30.419Z,28.40
2017-10-05T18:37:56.640Z,25.03
2017-10-05T18:40:22.830Z,22.33
2017-10-05T18:42:49.009Z,47.33
2017-10-05T18:45:15.267Z,30.60
2017-10-05T18:47:41.452Z,29.07
2017-10-05T18:50:07.629Z,29.10
2017-10-05T18:52:33.829Z,38.77
2017-10-05T18:55:00.058Z,33.70
2017-10-05T18:57:26.267Z,42.80
2017-10-05T18:59:52.422Z,32.83
2017-10-05T19:02:18.594Z,30.40
2017-10-05T19:04:44.781Z,49.20
2017-10-05T19:07:10.993Z,21.43
2017-10-05T19:09:37.257Z,22.53
2017-10-05T19:12:03.444Z,24.90
2017-10-05T19:14:29.607Z,31.17
2017-10-05T19:16:55.792Z,35.90
2017-10-05T19:19:21.987Z,47.40
2017-10-05T19:21:48.159Z,39.63
2017-10-05T19:24:14.328Z,48.63
2017-10-05T19:26:40.514Z,20.90
2017-10-05T19:29:06.697Z,26.47
2017-10-05T19:31:32.899Z,18.17
2017-10-05T19:33:59.078Z,15.37
2017-10-05T19:36:25.255Z,24.20
2017-10-05T19:38:51.430Z,21.60
2017-10-05T19:41:17.599Z,18.63
2017-10-05T19:43:43.998Z,23.37
2017-10-05T19:46:10.225Z,22.10
2017-10-05T19:48:36.387Z,24.53
2017-10-05T19:51:02.574Z,35.00
2017-10-05T19:53:28.752Z,46.97
2017-10-05T19:55:54.932Z,30.47
2017-10-05T19:58:21.127Z,49.30
2017-10-05T20:00:47.305Z,42.40
2017-10-05T20:03:13.471Z,33.67
2017-10-05T20:05:39.663Z,47.13
2017-10-05T20:08:05.923Z,32.83
2017-10-05T20:10:32.084Z,47.83
2017-10-05T20:12:58.261Z,42.17
2017-10-05T20:15:24.453Z,35.57
2017-10-05T20:17:50.640Z,29.83
2017-10-05T20:20:16.835Z,36.87
2017-10-05T20:22:43.000Z,38.07
2017-10-05T20:25:09.167Z,33.20
2017-10-05T20:27:35.336Z,31.23
2017-10-05T20:30:01.511Z,45.57
2017-10-05T20:32:27.691Z,34.17
2017-10-05T20:34:53.853Z,57.80
2017-10-05T20:37:20.135Z,38.83
2017-10-05T20:39:46.345Z,30.80
2017-10-05T20:42:12.522Z,26.50
2017-10-05T20:44:38.780Z,37.43
2017-10-05T20:47:04.929Z,27.33
2017-10-05T20:49:31.180Z,20.43
2017-10-05T20:51:57.353Z,32.00
2017-10-05T20:54:23.502Z,29.73
2017-10-05T20:56:49.655Z,28.40
2017-10-05T20:59:15.812Z,29.23
2017-10-05T21:01:42.007Z,29.07
2017-10-05T21:04:08.173Z,27.47
2017-10-05T21:06:34.351Z,25.60
2017-10-05T21:09:00.514Z,30.13
2017-10-05T21:11:26.698Z,18.13
2017-10-05T21:13:52.932Z,18.10
2017-10-05T21:16:19.110Z,21.13
2017-10-05T21:18:45.268Z,24.77
2017-10-05T21:21:11.431Z,25.93
2017-10-05T21:23:37.635Z,23.20
2017-10-05T21:26:03.841Z,31.63
2017-10-05T21:28:30.004Z,18.37
2017-10-05T21:30:56.177Z,28.70
2017-10-05T21:33:22.363Z,24.50
2017-10-05T21:35:48.536Z,32.60
2017-10-05T21:38:14.746Z,20.33
2017-10-05T21:40:40.918Z,23.60
2017-10-05T21:43:07.090Z,32.50
2017-10-05T21:45:33.247Z,21.03
2017-10-05T21:47:59.410Z,27.83
2017-10-05T21:50:25.643Z,31.70
2017-10-05T21:52:51.850Z,34.63
2017-10-05T21:55:18.007Z,32.97
2017-10-05T21:57:44.158Z,31.70
2017-10-05T22:00:10.308Z,24.67
2017-10-05T22:02:36.500Z,34.13
2017-10-05T22:05:02.830Z,34.27
2017-10-05T22:07:29.007Z,34.47
2017-10-05T22:09:55.162Z,23.43
2017-10-05T22:12:21.371Z,21.83
2017-10-05T22:14:47.618Z,46.27
2017-10-05T22:17:13.896Z,22.43
2017-10-05T22:19:40.113Z,21.90
2017-10-05T22:22:06.531Z,23.43
2017-10-05T22:24:32.738Z,38.03
2017-10-05T22:26:58.907Z,23.67
2017-10-05T22:29:25.064Z,26.50
2017-10-05T22:31:51.359Z,27.37
2017-10-05T22:34:17.569Z,23.53
2017-10-05T22:36:43.746Z,26.13
2017-10-05T22:39:09.921Z,21.80
2017-10-05T22:41:36.112Z,29.27
2017-10-05T22:44:02.525Z,19.37
2017-10-05T22:46:28.694Z,19.90
2017-10-05T22:48:54.852Z,20.33
2017-10-05T22:51:21.001Z,21.47
2017-10-05T22:53:47.161Z,24.37
2017-10-05T22:56:13.330Z,20.37
2017-10-05T22:58:39.508Z,23.03
2017-10-05T23:01:05.742Z,19.80
2017-10-05T23:03:31.969Z,26.67
2017-10-05T23:05:58.217Z,16.43
2017-10-05T23:08:24.431Z,17.70
2017-10-05T23:10:50.647Z,21.73
2017-10-05T23:13:16.848Z,15.50
2017-10-05T23:15:43.063Z,20.70
2017-10-05T23:18:09.286Z,21.40
2017-10-05T23:20:35.547Z,18.80
2017-10-05T23:23:01.747Z,23.53
2017-10-05T23:25:27.997Z,16.63
2017-10-05T23:27:54.299Z,18.40
2017-10-05T23:30:20.590Z,27.53
2017-10-05T23:32:46.828Z,28.33
2017-10-05T23:35:13.060Z,18.03
2017-10-05T23:37:39.312Z,23.93
2017-10-05T23:40:05.622Z,22.30
2017-10-05T23:42:31.890Z,25.53
2017-10-05T23:44:58.231Z,22.10
2017-10-05T23:47:24.443Z,18.93
2017-10-05T23:49:50.687Z,29.07
2017-10-05T23:52:16.922Z,18.13
2017-10-05T23:54:43.172Z,40.10
2017-10-05T23:57:09.415Z,19.73
2017-10-05T23:59:35.629Z,30.97
